Main page
METAR-TAF:

METAR-TAF

Airports :

Baghdad International Airport

Baghdad, Iraq

latitude: 33-15-45N, longitude: 44-14-04E, elevation: 35 m

Current weather observation

The report was made 1 hour and 2 minutes ago, at 09:00 UTC
Wind 12 kt from the North/Northeast
Temperature 23°C
Humidity 36%
Pressure 1014 hPa
Visibility 10 km or more
no clouds below 1500 m and no cumulonimbus

METAR: ORBI 240900Z 03012KT CAVOK 23/07 Q1014 NOSIG

Time: 13:02 (10:02 UTC)

Forecast

The report was made 6 hours and 2 minutes ago, at 04:00 UTC
Forecast valid from 24 at 06 UTC to 25 at 06 UTC
Wind 5 kt from the North/Northeast
Visibility: 7000 m
Becoming
from 24 at 08 UTC to 24 at 10 UTC
Wind 8 kt from the East/Southeast
Scattered clouds at a height of 3000 ft
Scattered clouds at a height of 7000 ft

TAF: ORBI 240400Z 2406/2506 03005KT 7000 NSC BECMG 2408/2410 12008KT SCT030 SCT070

Weather observations and forecasts of more than 4000 airports (METAR and TAF reports).

The available stations are represented by yellow and red dots on the map.

Hover mouse over dot to see the name of the station.

Then click to see weather observations and forecasts.

To change the map : click on the green buttons with a black cross to zoom in, on the green button with a dash to zoom out, or on the green arrows for adjacent maps.


METAR-TAF: